createdAt,value
2023-02-17T00:00:36.139Z,101022.83
2023-02-17T00:03:04.827Z,101023.06
2023-02-17T00:05:33.407Z,101019.46
2023-02-17T00:08:02.008Z,101019.31
2023-02-17T00:10:30.847Z,101016.26
2023-02-17T00:12:59.472Z,101020.24
2023-02-17T00:15:27.980Z,101019.95
2023-02-17T00:17:56.652Z,101017.58
2023-02-17T00:20:26.269Z,101008.26
2023-02-17T00:22:54.739Z,101011.95
2023-02-17T00:25:23.306Z,101000.79
2023-02-17T00:27:52.094Z,100994.90
2023-02-17T00:30:20.877Z,100993.95
2023-02-17T00:32:49.503Z,100993.92
2023-02-17T00:35:18.258Z,100991.17
2023-02-17T00:37:48.217Z,100989.14
2023-02-17T00:40:18.006Z,100989.02
2023-02-17T00:42:48.125Z,100993.82
2023-02-17T00:45:16.902Z,100996.43
2023-02-17T00:47:47.322Z,100990.52
2023-02-17T00:50:18.057Z,100985.93
2023-02-17T00:52:46.742Z,100985.40
2023-02-17T00:55:15.532Z,100979.89
2023-02-17T00:57:44.083Z,100982.55
2023-02-17T01:00:14.056Z,100976.35
2023-02-17T01:02:43.041Z,100978.85
2023-02-17T01:05:11.504Z,100977.98
2023-02-17T01:07:42.339Z,100979.63
2023-02-17T01:10:11.445Z,100980.38
2023-02-17T01:12:40.086Z,100981.06
2023-02-17T01:15:09.169Z,100984.36
2023-02-17T01:17:38.626Z,100987.48
2023-02-17T01:20:07.853Z,100985.02
2023-02-17T01:22:40.008Z,100982.23
2023-02-17T01:25:09.529Z,100983.55
2023-02-17T01:27:38.395Z,100981.23
2023-02-17T01:30:07.801Z,100976.31
2023-02-17T01:32:37.393Z,100976.98
2023-02-17T01:35:06.144Z,100970.73
2023-02-17T01:37:36.738Z,100968.67
2023-02-17T01:40:05.839Z,100974.74
2023-02-17T01:42:34.506Z,100974.38
2023-02-17T01:45:18.294Z,100975.84
2023-02-17T01:47:54.021Z,100978.42
2023-02-17T01:50:24.992Z,100973.73
2023-02-17T01:52:53.437Z,100971.54
2023-02-17T01:55:22.128Z,100967.25
2023-02-17T01:57:52.406Z,100967.18
2023-02-17T02:00:22.352Z,100963.80
2023-02-17T02:02:54.818Z,100960.71
2023-02-17T02:05:24.432Z,100966.20
2023-02-17T02:07:53.055Z,100963.39
2023-02-17T02:10:21.690Z,100965.38
2023-02-17T02:12:50.776Z,100967.45
2023-02-17T02:15:22.972Z,100965.10
2023-02-17T02:17:59.846Z,100966.70
2023-02-17T02:20:41.514Z,100965.19
2023-02-17T02:23:29.518Z,100963.34
2023-02-17T02:26:10.134Z,100965.23
2023-02-17T02:29:03.844Z,100965.48
2023-02-17T02:31:51.861Z,100966.38
2023-02-17T02:34:24.984Z,100966.41
2023-02-17T02:36:57.025Z,100967.91
2023-02-17T02:39:28.493Z,100967.39
2023-02-17T02:41:59.457Z,100965.62
2023-02-17T02:44:30.122Z,100962.16
2023-02-17T02:47:04.324Z,100958.41
2023-02-17T02:49:35.921Z,100961.54
2023-02-17T02:52:14.413Z,100959.30
2023-02-17T02:54:55.321Z,100962.98
2023-02-17T02:57:45.467Z,100962.71
2023-02-17T03:00:30.188Z,100962.66
2023-02-17T03:03:03.740Z,100962.46
2023-02-17T03:05:39.774Z,100956.70
2023-02-17T03:08:17.955Z,100955.23
2023-02-17T03:10:52.094Z,100957.52
2023-02-17T03:13:21.197Z,100952.95
2023-02-17T03:15:50.100Z,100954.39
2023-02-17T03:18:18.977Z,100952.08
2023-02-17T03:20:53.669Z,100950.27
2023-02-17T03:23:22.047Z,100949.91
2023-02-17T03:25:50.767Z,100947.58
2023-02-17T03:28:20.142Z,100950.38
2023-02-17T03:30:49.156Z,100945.05
2023-02-17T03:33:18.066Z,100942.89
2023-02-17T03:35:46.566Z,100941.39
2023-02-17T03:38:14.944Z,100940.95
2023-02-17T03:40:43.398Z,100942.66
2023-02-17T03:43:11.801Z,100944.00
2023-02-17T03:45:40.302Z,100944.64
2023-02-17T03:48:10.777Z,100942.00
2023-02-17T03:50:40.592Z,100944.52
2023-02-17T03:53:09.130Z,100941.04
2023-02-17T03:55:37.862Z,100942.17
2023-02-17T03:58:07.054Z,100938.41
2023-02-17T04:00:35.676Z,100938.52
2023-02-17T04:03:06.401Z,100931.73
2023-02-17T04:05:36.324Z,100931.35
2023-02-17T04:08:04.989Z,100931.95
2023-02-17T04:10:34.282Z,100932.48
2023-02-17T04:13:03.375Z,100934.91
2023-02-17T04:15:38.119Z,100938.29
2023-02-17T04:18:06.619Z,100939.04
2023-02-17T04:20:35.364Z,100938.99
2023-02-17T04:23:04.634Z,100935.98
2023-02-17T04:25:36.733Z,100934.17
2023-02-17T04:28:05.828Z,100936.92
2023-02-17T04:30:35.054Z,100934.50
2023-02-17T04:33:04.204Z,100936.53
2023-02-17T04:35:33.111Z,100934.52
2023-02-17T04:38:02.419Z,100932.75
2023-02-17T04:40:31.532Z,100934.25
2023-02-17T04:43:01.747Z,100929.34
2023-02-17T04:45:30.117Z,100930.08
2023-02-17T04:47:58.792Z,100931.24
2023-02-17T04:50:27.594Z,100931.08
2023-02-17T04:52:56.177Z,100927.98
2023-02-17T04:55:24.922Z,100930.49
2023-02-17T04:57:53.911Z,100931.10
2023-02-17T05:00:22.994Z,100929.34
2023-02-17T05:02:51.557Z,100924.42
2023-02-17T05:05:21.783Z,100926.49
2023-02-17T05:07:50.744Z,100927.46
2023-02-17T05:10:19.427Z,100928.55
2023-02-17T05:12:47.916Z,100933.17
2023-02-17T05:15:20.653Z,100933.70
2023-02-17T05:17:49.885Z,100934.66
2023-02-17T05:20:18.698Z,100933.66
2023-02-17T05:22:47.059Z,100933.00
2023-02-17T05:25:16.145Z,100934.17
2023-02-17T05:27:45.754Z,100940.20
2023-02-17T05:30:14.646Z,100941.67
2023-02-17T05:32:43.156Z,100937.98
2023-02-17T05:35:11.827Z,100934.46
2023-02-17T05:37:40.848Z,100931.54
2023-02-17T05:40:10.008Z,100932.83
2023-02-17T05:42:38.591Z,100930.79
2023-02-17T05:45:07.479Z,100932.05
2023-02-17T05:47:37.147Z,100929.05
2023-02-17T05:50:06.409Z,100924.95
2023-02-17T05:52:35.090Z,100923.77
2023-02-17T05:55:05.112Z,100921.42
2023-02-17T05:57:33.796Z,100925.52
2023-02-17T06:00:02.993Z,100929.45
2023-02-17T06:02:41.416Z,100929.98
2023-02-17T06:05:10.071Z,100929.27
2023-02-17T06:07:39.710Z,100925.20
2023-02-17T06:10:12.604Z,100925.40
2023-02-17T06:12:41.258Z,100923.34
2023-02-17T06:15:10.044Z,100922.92
2023-02-17T06:17:39.517Z,100923.81
2023-02-17T06:20:09.392Z,100921.45
2023-02-17T06:22:37.780Z,100923.98
2023-02-17T06:25:07.367Z,100924.13
2023-02-17T06:27:36.037Z,100926.73
2023-02-17T06:30:05.362Z,100922.79
2023-02-17T06:32:35.424Z,100920.95
2023-02-17T06:35:04.649Z,100922.81
2023-02-17T06:37:32.976Z,100924.78
2023-02-17T06:40:02.689Z,100919.04
2023-02-17T06:42:32.066Z,100914.30
2023-02-17T06:45:03.442Z,100909.73
2023-02-17T06:47:33.820Z,100907.17
2023-02-17T06:50:02.502Z,100906.22
2023-02-17T06:52:31.184Z,100905.48
2023-02-17T06:54:59.535Z,100907.01
2023-02-17T06:57:28.710Z,100909.14
2023-02-17T06:59:57.344Z,100904.80
2023-02-17T07:02:27.004Z,100904.67
2023-02-17T07:04:55.959Z,100905.05
2023-02-17T07:07:24.545Z,100903.50
2023-02-17T07:09:53.739Z,100903.15
2023-02-17T07:12:23.540Z,100896.72
2023-02-17T07:14:53.738Z,100890.95
2023-02-17T07:17:22.432Z,100889.17
2023-02-17T07:19:51.033Z,100895.45
2023-02-17T07:22:19.619Z,100887.93
2023-02-17T07:24:48.285Z,100887.76
2023-02-17T07:27:16.747Z,100892.75
2023-02-17T07:29:45.270Z,100889.51
2023-02-17T07:32:13.969Z,100888.75
2023-02-17T07:34:42.369Z,100881.48
2023-02-17T07:37:11.346Z,100883.63
2023-02-17T07:39:39.913Z,100887.61
2023-02-17T07:42:10.238Z,100885.99
2023-02-17T07:44:38.879Z,100884.77
2023-02-17T07:47:07.401Z,100880.67
2023-02-17T07:49:36.017Z,100881.45
2023-02-17T07:52:05.422Z,100884.78
2023-02-17T07:54:34.110Z,100880.09
2023-02-17T07:57:02.656Z,100879.35
2023-02-17T07:59:31.541Z,100881.31
2023-02-17T08:02:00.282Z,100882.39
2023-02-17T08:04:28.933Z,100880.52
2023-02-17T08:06:57.500Z,100878.21
2023-02-17T08:09:44.715Z,100875.66
2023-02-17T08:12:35.010Z,100871.84
2023-02-17T08:15:07.786Z,100869.30
2023-02-17T08:17:37.460Z,100868.09
2023-02-17T08:20:09.062Z,100870.02
2023-02-17T08:22:40.237Z,100870.01
2023-02-17T08:25:08.786Z,100869.68
2023-02-17T08:27:37.373Z,100864.26
2023-02-17T08:30:06.952Z,100858.97
2023-02-17T08:32:35.351Z,100861.67
2023-02-17T08:35:04.102Z,100863.22
2023-02-17T08:37:32.973Z,100857.98
2023-02-17T08:40:01.827Z,100864.43
2023-02-17T08:42:33.014Z,100861.08
2023-02-17T08:45:04.315Z,100860.48
2023-02-17T08:47:32.803Z,100865.11
2023-02-17T08:50:02.777Z,100868.95
2023-02-17T08:52:31.700Z,100864.58
2023-02-17T08:55:04.440Z,100862.40
2023-02-17T08:57:34.749Z,100867.33
2023-02-17T09:00:07.402Z,100871.09
2023-02-17T09:02:37.727Z,100866.39
2023-02-17T09:05:06.384Z,100865.09
2023-02-17T09:07:34.944Z,100866.08
2023-02-17T09:10:05.373Z,100867.29
2023-02-17T09:12:38.073Z,100866.50
2023-02-17T09:15:07.526Z,100860.20
2023-02-17T09:17:40.100Z,100858.14
2023-02-17T09:20:23.950Z,100854.29
2023-02-17T09:22:54.095Z,100851.43
2023-02-17T09:25:23.379Z,100846.36
2023-02-17T09:27:53.409Z,100841.72
2023-02-17T09:30:21.969Z,100837.09
2023-02-17T09:32:50.927Z,100835.61
2023-02-17T09:35:21.067Z,100830.91
2023-02-17T09:37:50.256Z,100827.48
2023-02-17T09:40:24.375Z,100824.77
2023-02-17T09:42:52.753Z,100817.75
2023-02-17T09:45:34.350Z,100814.83
2023-02-17T09:48:12.208Z,100810.95
2023-02-17T09:50:44.033Z,100811.84
2023-02-17T09:53:28.458Z,100809.02
2023-02-17T09:55:57.913Z,100811.61
2023-02-17T09:58:27.369Z,100809.68
2023-02-17T10:00:57.297Z,100805.35
2023-02-17T10:03:40.875Z,100795.95
2023-02-17T10:06:20.298Z,100798.61
2023-02-17T10:08:57.214Z,100800.86
2023-02-17T10:11:34.687Z,100795.87
2023-02-17T10:14:10.539Z,100789.73
2023-02-17T10:16:52.113Z,100787.66
2023-02-17T10:19:29.813Z,100790.14
2023-02-17T10:22:11.692Z,100784.83
2023-02-17T10:24:40.116Z,100778.91
2023-02-17T10:27:14.983Z,100783.27
2023-02-17T10:29:43.586Z,100784.56
2023-02-17T10:32:23.340Z,100778.05
2023-02-17T10:35:06.043Z,100774.14
2023-02-17T10:37:55.168Z,100773.47
2023-02-17T10:40:25.592Z,100771.72
2023-02-17T10:42:58.071Z,100768.67
2023-02-17T10:45:34.371Z,100765.89
2023-02-17T10:48:07.022Z,100767.15
2023-02-17T10:50:37.143Z,100763.51
2023-02-17T10:53:20.616Z,100762.58
2023-02-17T10:55:58.763Z,100764.52
2023-02-17T10:58:35.537Z,100761.02
2023-02-17T11:01:06.374Z,100763.58
2023-02-17T11:03:38.568Z,100762.11
2023-02-17T11:06:23.136Z,100759.06
2023-02-17T11:08:57.969Z,100750.48
2023-02-17T11:11:32.571Z,100745.54
2023-02-17T11:14:07.554Z,100742.27
2023-02-17T11:16:45.651Z,100744.89
2023-02-17T11:19:25.790Z,100736.44
2023-02-17T11:21:55.078Z,100735.63
2023-02-17T11:24:23.594Z,100732.48
2023-02-17T11:27:02.613Z,100729.73
2023-02-17T11:29:34.465Z,100724.70
2023-02-17T11:32:12.742Z,100720.04
2023-02-17T11:34:42.966Z,100720.27
2023-02-17T11:37:14.228Z,100721.14
2023-02-17T11:39:45.073Z,100713.48
2023-02-17T11:42:23.120Z,100712.04
2023-02-17T11:44:52.176Z,100715.39
2023-02-17T11:47:48.780Z,100708.46
2023-02-17T11:50:31.696Z,100715.40
2023-02-17T11:53:14.728Z,100716.65
2023-02-17T11:56:06.693Z,100713.44
2023-02-17T11:58:44.269Z,100714.40
2023-02-17T12:01:50.708Z,100713.27
2023-02-17T12:04:55.926Z,100710.84
2023-02-17T12:07:31.758Z,100709.55
2023-02-17T12:10:10.384Z,100710.80
2023-02-17T12:12:44.860Z,100711.71
2023-02-17T12:15:23.159Z,100710.48
2023-02-17T12:18:20.416Z,100705.34
2023-02-17T12:21:07.541Z,100706.35
2023-02-17T12:23:36.323Z,100706.31
2023-02-17T12:26:26.952Z,100705.30
2023-02-17T12:29:10.900Z,100704.74
2023-02-17T12:32:21.266Z,100706.36
2023-02-17T12:34:53.194Z,100703.23
2023-02-17T12:37:27.719Z,100698.48
2023-02-17T12:40:08.589Z,100698.11
2023-02-17T12:42:39.441Z,100697.25
2023-02-17T12:45:14.169Z,100694.34
2023-02-17T12:48:05.608Z,100690.55
2023-02-17T12:51:04.634Z,100688.41
2023-02-17T12:53:36.225Z,100689.15
2023-02-17T12:56:05.087Z,100689.00
2023-02-17T12:58:33.657Z,100690.02
2023-02-17T13:01:11.112Z,100698.92
2023-02-17T13:03:39.670Z,100696.17
2023-02-17T13:06:25.414Z,100692.61
2023-02-17T13:09:23.024Z,100690.67
2023-02-17T13:11:51.589Z,100690.96
2023-02-17T13:14:44.612Z,100690.48
2023-02-17T13:17:34.170Z,100690.73
2023-02-17T13:20:12.388Z,100690.17
2023-02-17T13:22:44.126Z,100691.74
2023-02-17T13:25:14.647Z,100690.36
2023-02-17T13:27:43.628Z,100691.04
2023-02-17T13:30:30.402Z,100687.34
2023-02-17T13:33:07.071Z,100688.52
2023-02-17T13:35:36.827Z,100689.39
2023-02-17T13:38:05.105Z,100684.59
2023-02-17T13:40:36.176Z,100686.73
2023-02-17T13:43:10.287Z,100685.38
2023-02-17T13:45:59.894Z,100687.98
2023-02-17T13:48:33.228Z,100689.90
2023-02-17T13:51:05.983Z,100687.73
2023-02-17T13:53:37.846Z,100683.40
2023-02-17T13:56:31.229Z,100682.72
2023-02-17T13:59:18.910Z,100681.88
2023-02-17T14:01:51.172Z,100682.16
2023-02-17T14:04:32.554Z,100684.58
2023-02-17T14:07:04.173Z,100678.80
2023-02-17T14:09:33.526Z,100677.11
2023-02-17T14:12:06.527Z,100673.76
2023-02-17T14:14:37.865Z,100669.94
2023-02-17T14:17:09.291Z,100669.09
2023-02-17T14:19:46.504Z,100670.39
2023-02-17T14:22:31.934Z,100664.77
2023-02-17T14:25:09.300Z,100661.17
2023-02-17T14:27:46.202Z,100662.77
2023-02-17T14:30:34.323Z,100658.53
2023-02-17T14:33:04.347Z,100664.45
2023-02-17T14:35:35.263Z,100661.41
2023-02-17T14:38:08.989Z,100664.85
2023-02-17T14:40:39.952Z,100662.61
2023-02-17T14:43:09.226Z,100664.41
2023-02-17T14:45:37.713Z,100662.38
2023-02-17T14:48:07.314Z,100666.31
2023-02-17T14:50:42.456Z,100663.90
2023-02-17T14:53:20.150Z,100664.09
2023-02-17T14:55:58.972Z,100662.55
2023-02-17T14:58:27.381Z,100662.76
2023-02-17T15:00:56.059Z,100667.53
2023-02-17T15:03:24.940Z,100666.55
2023-02-17T15:05:54.141Z,100671.11
2023-02-17T15:08:29.940Z,100669.58
2023-02-17T15:10:58.876Z,100669.61
2023-02-17T15:13:28.086Z,100671.46
2023-02-17T15:15:59.147Z,100668.91
2023-02-17T15:18:28.280Z,100673.21
2023-02-17T15:20:57.061Z,100670.04
2023-02-17T15:23:28.967Z,100674.50
2023-02-17T15:26:02.457Z,100675.79
2023-02-17T15:28:31.453Z,100674.64
2023-02-17T15:31:00.160Z,100678.95
2023-02-17T15:33:29.334Z,100679.13
2023-02-17T15:35:58.040Z,100680.60
2023-02-17T15:38:27.424Z,100683.80
2023-02-17T15:40:58.854Z,100683.76
2023-02-17T15:43:33.497Z,100684.59
2023-02-17T15:46:05.271Z,100687.62
2023-02-17T15:48:35.836Z,100685.67
2023-02-17T15:51:04.265Z,100685.33
2023-02-17T15:53:33.823Z,100686.81
2023-02-17T15:56:02.471Z,100689.17
2023-02-17T15:58:30.878Z,100691.51
2023-02-17T16:01:01.424Z,100688.89
2023-02-17T16:03:30.173Z,100687.18
2023-02-17T16:05:58.865Z,100685.64
2023-02-17T16:08:27.297Z,100684.48
2023-02-17T16:10:56.287Z,100684.65
2023-02-17T16:13:25.511Z,100683.67
2023-02-17T16:15:55.431Z,100680.51
2023-02-17T16:18:25.544Z,100677.80
2023-02-17T16:20:54.132Z,100677.63
2023-02-17T16:23:22.843Z,100676.53
2023-02-17T16:25:51.402Z,100678.65
2023-02-17T16:28:21.337Z,100682.79
2023-02-17T16:30:49.954Z,100684.88
2023-02-17T16:33:19.201Z,100682.13
2023-02-17T16:35:49.642Z,100682.65
2023-02-17T16:38:22.801Z,100680.63
2023-02-17T16:40:52.553Z,100685.58
2023-02-17T16:43:23.281Z,100684.25
2023-02-17T16:45:55.916Z,100682.38
2023-02-17T16:48:26.889Z,100683.67
2023-02-17T16:50:55.449Z,100689.30
2023-02-17T16:53:28.145Z,100689.40
2023-02-17T16:55:56.878Z,100689.00
2023-02-17T16:58:26.476Z,100694.14
2023-02-17T17:00:56.177Z,100693.90
2023-02-17T17:03:24.834Z,100692.78
2023-02-17T17:05:53.638Z,100699.04
2023-02-17T17:08:23.021Z,100697.45
2023-02-17T17:10:53.556Z,100697.73
2023-02-17T17:13:23.471Z,100694.95
2023-02-17T17:15:52.125Z,100698.29
2023-02-17T17:18:21.510Z,100700.09
2023-02-17T17:20:50.090Z,100699.35
2023-02-17T17:23:20.470Z,100697.71
2023-02-17T17:25:49.891Z,100698.65
2023-02-17T17:28:19.369Z,100696.83
2023-02-17T17:30:48.599Z,100698.59
2023-02-17T17:33:17.473Z,100695.11
2023-02-17T17:35:46.358Z,100699.40
2023-02-17T17:38:15.859Z,100700.95
2023-02-17T17:40:53.583Z,100702.59
2023-02-17T17:43:23.163Z,100703.56
2023-02-17T17:45:52.398Z,100704.51
2023-02-17T17:48:21.674Z,100707.48
2023-02-17T17:50:51.098Z,100708.48
2023-02-17T17:53:20.483Z,100708.80
2023-02-17T17:55:49.101Z,100708.27
2023-02-17T17:58:18.143Z,100705.68
2023-02-17T18:00:51.222Z,100710.75
2023-02-17T18:03:20.638Z,100707.66
2023-02-17T18:05:49.350Z,100705.79
2023-02-17T18:08:19.051Z,100708.31
2023-02-17T18:10:47.626Z,100706.54
2023-02-17T18:13:16.815Z,100707.90
2023-02-17T18:15:45.539Z,100707.01
2023-02-17T18:18:14.087Z,100704.03
2023-02-17T18:20:44.409Z,100703.95
2023-02-17T18:23:13.158Z,100706.60
2023-02-17T18:25:42.546Z,100709.03
2023-02-17T18:28:12.033Z,100710.45
2023-02-17T18:30:40.522Z,100713.80
2023-02-17T18:33:14.602Z,100714.58
2023-02-17T18:35:45.746Z,100719.40
2023-02-17T18:38:14.626Z,100725.60
2023-02-17T18:40:44.345Z,100720.88
2023-02-17T18:43:12.961Z,100724.88
2023-02-17T18:45:41.606Z,100724.85
2023-02-17T18:48:10.194Z,100726.77
2023-02-17T18:50:39.625Z,100728.02
2023-02-17T18:53:08.405Z,100726.95
2023-02-17T18:55:40.038Z,100727.80
2023-02-17T18:58:10.985Z,100724.16
2023-02-17T19:00:41.229Z,100731.52
2023-02-17T19:03:11.245Z,100722.61
2023-02-17T19:05:40.525Z,100722.85
2023-02-17T19:08:09.206Z,100719.44
2023-02-17T19:10:38.189Z,100720.02
2023-02-17T19:13:06.730Z,100718.59
2023-02-17T19:15:36.052Z,100714.39
2023-02-17T19:18:05.381Z,100715.44
2023-02-17T19:20:34.271Z,100715.33
2023-02-17T19:23:03.664Z,100715.72
2023-02-17T19:25:33.072Z,100713.71
2023-02-17T19:28:01.627Z,100714.58
2023-02-17T19:30:30.669Z,100716.81
2023-02-17T19:32:59.223Z,100717.48
2023-02-17T19:35:28.004Z,100714.95
2023-02-17T19:37:56.849Z,100714.20
2023-02-17T19:40:25.519Z,100710.23
2023-02-17T19:42:55.258Z,100713.58
2023-02-17T19:45:23.909Z,100713.01
2023-02-17T19:47:52.780Z,100712.75
2023-02-17T19:50:22.499Z,100715.58
2023-02-17T19:52:51.256Z,100720.62
2023-02-17T19:55:20.175Z,100715.98
2023-02-17T19:57:52.198Z,100711.33
2023-02-17T20:00:20.875Z,100714.67
2023-02-17T20:02:49.778Z,100717.02
2023-02-17T20:05:18.916Z,100714.59
2023-02-17T20:07:48.029Z,100712.88
2023-02-17T20:10:16.708Z,100706.88
2023-02-17T20:12:46.404Z,100706.10
2023-02-17T20:15:15.097Z,100705.70
2023-02-17T20:17:44.724Z,100702.77
2023-02-17T20:20:13.376Z,100698.66
2023-02-17T20:22:42.068Z,100700.52
2023-02-17T20:25:10.448Z,100699.14
2023-02-17T20:27:39.144Z,100692.17
2023-02-17T20:30:11.319Z,100692.10
2023-02-17T20:32:40.329Z,100691.19
2023-02-17T20:35:13.034Z,100685.79
2023-02-17T20:37:41.988Z,100688.20
2023-02-17T20:40:10.866Z,100684.67
2023-02-17T20:42:40.467Z,100677.31
2023-02-17T20:45:09.054Z,100678.09
2023-02-17T20:47:37.646Z,100677.20
2023-02-17T20:50:09.505Z,100676.83
2023-02-17T20:52:38.132Z,100676.61
2023-02-17T20:55:07.113Z,100675.09
2023-02-17T20:57:35.678Z,100675.24
2023-02-17T21:00:05.625Z,100677.70
2023-02-17T21:02:34.205Z,100673.50
2023-02-17T21:05:03.458Z,100675.33
2023-02-17T21:07:32.858Z,100675.49
2023-02-17T21:10:02.466Z,100673.67
2023-02-17T21:12:31.777Z,100675.17
2023-02-17T21:15:00.616Z,100673.11
2023-02-17T21:17:29.185Z,100675.30
2023-02-17T21:19:57.747Z,100674.09
2023-02-17T21:22:26.254Z,100674.02
2023-02-17T21:24:55.295Z,100672.09
2023-02-17T21:27:24.084Z,100671.17
2023-02-17T21:29:52.931Z,100671.59
2023-02-17T21:32:23.706Z,100673.02
2023-02-17T21:34:52.536Z,100677.48
2023-02-17T21:37:21.108Z,100679.73
2023-02-17T21:39:49.764Z,100680.05
2023-02-17T21:42:38.408Z,100683.70
2023-02-17T21:45:07.756Z,100681.11
2023-02-17T21:47:36.322Z,100683.19
2023-02-17T21:50:06.028Z,100680.79
2023-02-17T21:52:35.624Z,100683.33
2023-02-17T21:55:04.206Z,100684.66
2023-02-17T21:57:32.686Z,100691.36
2023-02-17T22:00:01.539Z,100685.89
2023-02-17T22:02:30.824Z,100689.02
2023-02-17T22:04:59.410Z,100690.46
2023-02-17T22:07:28.518Z,100694.10
2023-02-17T22:09:58.211Z,100694.01
2023-02-17T22:12:26.699Z,100692.11
2023-02-17T22:14:55.788Z,100690.56
2023-02-17T22:17:26.725Z,100686.81
2023-02-17T22:19:55.615Z,100680.52
2023-02-17T22:22:24.406Z,100679.69
2023-02-17T22:24:53.309Z,100681.88
2023-02-17T22:27:21.778Z,100679.10
2023-02-17T22:29:50.487Z,100673.27
2023-02-17T22:32:19.316Z,100675.74
2023-02-17T22:34:47.937Z,100674.89
2023-02-17T22:37:16.383Z,100667.95
2023-02-17T22:39:45.454Z,100664.09
2023-02-17T22:42:15.465Z,100667.35
2023-02-17T22:44:43.932Z,100666.36
2023-02-17T22:47:12.509Z,100658.66
2023-02-17T22:49:41.453Z,100659.54
2023-02-17T22:52:09.968Z,100658.21
2023-02-17T22:54:39.166Z,100653.90
2023-02-17T22:57:09.287Z,100653.08
2023-02-17T22:59:38.445Z,100651.94
2023-02-17T23:02:11.572Z,100642.55
2023-02-17T23:04:40.376Z,100643.23
2023-02-17T23:07:11.301Z,100644.27
2023-02-17T23:09:40.939Z,100643.09
2023-02-17T23:12:09.409Z,100644.43
2023-02-17T23:14:39.327Z,100643.89
2023-02-17T23:17:10.082Z,100641.70
2023-02-17T23:19:43.055Z,100641.70
2023-02-17T23:22:15.999Z,100640.73
2023-02-17T23:24:45.949Z,100648.59
2023-02-17T23:27:15.232Z,100646.51
2023-02-17T23:29:43.604Z,100644.59
2023-02-17T23:32:12.398Z,100638.73
2023-02-17T23:34:41.186Z,100635.20
2023-02-17T23:37:09.665Z,100631.38
2023-02-17T23:39:38.626Z,100625.67
2023-02-17T23:42:08.531Z,100622.66
2023-02-17T23:44:38.491Z,100618.16
2023-02-17T23:47:07.831Z,100617.72
2023-02-17T23:49:36.314Z,100610.23
2023-02-17T23:52:05.338Z,100609.42
2023-02-17T23:54:34.056Z,100607.58
2023-02-17T23:57:02.537Z,100604.96
2023-02-17T23:59:31.324Z,100605.58
